Time;durP1;ratioP1;P1;durP2;ratioP2;P2;SDS_P1;SDS_P2;PMS_P1;PMS_P2;Temp;Humidity;BMP_temperature;BMP_pressure;BME280_temperature;BME280_humidity;BME280_pressure;Samples;Min_cycle;Max_cycle;Signal;HPM_P1;HPM_P2
2021/11/23 00:02:25;;;;;;;18.08;11.23;;;231.00;2252.80;;;;;;5089136;28;20055;-78
2021/11/23 00:04:51;;;;;;;16.30;10.30;;;231.00;2252.80;;;;;;5084031;28;20055;-77
2021/11/23 00:07:17;;;;;;;17.67;12.25;;;230.90;2252.80;;;;;;5093955;28;20495;-76
2021/11/23 00:09:43;;;;;;;18.98;12.02;;;230.90;2252.80;;;;;;5093119;28;20032;-77
2021/11/23 00:12:09;;;;;;;16.73;11.63;;;231.00;2252.80;;;;;;5093126;28;20057;-76
2021/11/23 00:14:35;;;;;;;18.83;12.23;;;231.00;2252.80;;;;;;5093119;28;20028;-77
2021/11/23 00:17:01;;;;;;;19.05;12.05;;;231.00;2252.80;;;;;;5094084;28;20030;-78
2021/11/23 00:19:27;;;;;;;19.73;13.00;;;230.90;2252.80;;;;;;5087106;28;20456;-77
2021/11/23 00:21:53;;;;;;;20.52;12.35;;;230.80;2252.80;;;;;;5083953;28;20031;-76
2021/11/23 00:24:18;;;;;;;20.27;14.45;;;230.80;2252.80;;;;;;5090174;28;20028;-77
2021/11/23 00:26:44;;;;;;;19.15;13.77;;;230.70;2252.80;;;;;;5092720;28;20032;-77
2021/11/23 00:29:10;;;;;;;17.02;12.38;;;230.70;2252.80;;;;;;5092199;28;20497;-75
2021/11/23 00:31:35;;;;;;;18.58;11.52;;;230.70;2252.80;;;;;;5092743;28;20047;-76
2021/11/23 00:34:01;;;;;;;17.15;11.90;;;230.60;2252.80;;;;;;5092384;28;20016;-76
2021/11/23 00:36:27;;;;;;;13.77;10.48;;;230.60;2252.80;;;;;;5092733;28;20035;-75
2021/11/23 00:38:53;;;;;;;16.17;11.13;;;230.60;2252.80;;;;;;5087772;28;20024;-76
2021/11/23 00:41:19;;;;;;;15.43;10.63;;;230.50;2252.80;;;;;;5086144;28;20028;-76
2021/11/23 00:43:46;;;;;;;18.17;10.68;;;230.50;2252.80;;;;;;5078414;28;20484;-75
2021/11/23 00:46:12;;;;;;;18.40;10.25;;;230.50;2252.80;;;;;;5099575;28;20051;-74
2021/11/23 00:48:38;;;;;;;17.23;12.00;;;230.40;2252.80;;;;;;5097522;28;20065;-78
2021/11/23 00:51:05;;;;;;;19.27;11.80;;;205.70;2252.80;;;;;;5096348;28;20024;-75
2021/11/23 00:53:33;;;;;;;18.33;10.13;;;230.40;2252.80;;;;;;5096203;28;20031;-76
2021/11/23 00:56:00;;;;;;;15.68;10.48;;;230.40;2252.80;;;;;;5096266;28;20036;-78
2021/11/23 00:58:26;;;;;;;16.58;9.82;;;230.40;2252.80;;;;;;5096166;28;20536;-76
2021/11/23 01:00:55;;;;;;;14.60;9.57;;;230.40;2252.80;;;;;;5095650;28;20028;-75
2021/11/23 01:03:21;;;;;;;12.73;8.77;;;230.40;2252.80;;;;;;5096026;28;20051;-76
2021/11/23 01:05:46;;;;;;;13.65;8.80;;;230.40;2252.80;;;;;;5096611;28;20070;-77
2021/11/23 01:08:17;;;;;;;12.23;8.65;;;205.70;2252.80;;;;;;5095700;28;20027;-80
2021/11/23 01:10:43;;;;;;;14.73;8.60;;;230.40;2252.80;;;;;;5096593;28;20070;-78
2021/11/23 01:13:09;;;;;;;16.77;10.18;;;205.70;2252.80;;;;;;5098378;28;20068;-79
2021/11/23 01:15:36;;;;;;;13.65;8.68;;;230.40;2252.80;;;;;;5100617;28;20495;-79
2021/11/23 01:18:02;;;;;;;11.27;8.02;;;230.50;2252.80;;;;;;5099969;28;20020;-78
2021/11/23 01:20:28;;;;;;;13.68;8.35;;;230.50;2252.80;;;;;;5102431;28;20535;-77
2021/11/23 01:22:54;;;;;;;13.95;8.38;;;230.50;2252.80;;;;;;5100117;28;20460;-75
2021/11/23 01:25:20;;;;;;;12.75;8.13;;;230.60;2252.80;;;;;;5096649;28;20024;-79
2021/11/23 01:27:46;;;;;;;13.85;8.07;;;230.60;2252.80;;;;;;5098019;28;20024;-76
2021/11/23 01:30:13;;;;;;;12.32;7.57;;;230.70;2252.80;;;;;;5094913;28;20495;-77
2021/11/23 01:32:40;;;;;;;10.85;7.05;;;230.70;2252.80;;;;;;5091013;28;20192;-78
2021/11/23 01:35:09;;;;;;;12.52;7.90;;;230.70;2252.80;;;;;;5084048;28;20032;-76
2021/11/23 01:37:35;;;;;;;12.73;6.90;;;230.80;2252.80;;;;;;5074876;28;20020;-77
2021/11/23 01:40:03;;;;;;;14.88;9.38;;;230.80;2252.80;;;;;;5074355;28;20111;-79
2021/11/23 01:42:28;;;;;;;16.33;9.85;;;230.80;2252.80;;;;;;5074617;28;20021;-79
2021/11/23 01:44:54;;;;;;;12.73;8.43;;;230.80;2252.80;;;;;;5075421;28;20048;-79
2021/11/23 01:47:20;;;;;;;14.73;9.15;;;230.80;2252.80;;;;;;5074798;28;20031;-76
2021/11/23 01:49:46;;;;;;;16.77;8.80;;;230.80;2252.80;;;;;;5074881;28;20021;-78
2021/11/23 01:52:12;;;;;;;15.38;8.82;;;230.80;2252.80;;;;;;5074785;28;20024;-76
2021/11/23 01:54:38;;;;;;;13.82;8.90;;;230.70;2252.80;;;;;;5074439;28;20107;-76
2021/11/23 01:57:04;;;;;;;8.60;6.47;;;230.80;2252.80;;;;;;5074360;28;20028;-77
2021/11/23 01:59:30;;;;;;;14.55;7.75;;;230.70;2252.80;;;;;;5074535;28;20039;-78
2021/11/23 02:01:56;;;;;;;16.13;8.05;;;230.70;2252.80;;;;;;5078900;28;20028;-76
2021/11/23 02:04:22;;;;;;;12.65;7.38;;;230.70;2252.80;;;;;;5094726;28;20030;-76
2021/11/23 02:06:47;;;;;;;18.08;9.77;;;230.80;2252.80;;;;;;5081195;28;20467;-76
2021/11/23 02:09:13;;;;;;;11.77;7.47;;;230.70;2252.80;;;;;;5074528;28;20028;-75
2021/11/23 02:11:39;;;;;;;11.38;7.38;;;230.70;2252.80;;;;;;5074440;28;20032;-76
2021/11/23 02:14:05;;;;;;;12.55;8.60;;;230.70;2252.80;;;;;;5073894;28;20140;-77
2021/11/23 02:16:32;;;;;;;12.70;7.90;;;230.70;2252.80;;;;;;5074688;28;20032;-77
2021/11/23 02:18:58;;;;;;;13.45;10.73;;;230.80;2252.80;;;;;;5074288;28;20020;-77
2021/11/23 02:21:24;;;;;;;12.48;7.53;;;230.70;2252.80;;;;;;5074005;28;20025;-78
2021/11/23 02:23:50;;;;;;;12.50;8.23;;;230.80;2252.80;;;;;;5074148;28;20029;-78
2021/11/23 02:26:16;;;;;;;10.35;7.13;;;230.80;2252.80;;;;;;5074043;28;20123;-76
2021/11/23 02:28:42;;;;;;;10.70;6.78;;;230.80;2252.80;;;;;;5073361;28;20116;-76
2021/11/23 02:31:09;;;;;;;9.60;7.63;;;230.70;2252.80;;;;;;5074700;28;20029;-77
2021/11/23 02:33:36;;;;;;;10.55;8.07;;;230.70;2252.80;;;;;;5074494;28;20395;-75
2021/11/23 02:36:05;;;;;;;12.05;8.80;;;230.60;2252.80;;;;;;5074548;28;20222;-77
2021/11/23 02:38:33;;;;;;;15.98;9.43;;;230.70;2252.80;;;;;;5074219;28;20052;-78
2021/11/23 02:41:00;;;;;;;8.18;6.18;;;230.70;2252.80;;;;;;5077310;28;20240;-77
2021/11/23 02:43:27;;;;;;;13.57;9.30;;;230.70;2252.80;;;;;;5076388;28;20036;-76
2021/11/23 02:45:53;;;;;;;12.00;7.78;;;230.70;2252.80;;;;;;5076063;28;20503;-76
2021/11/23 02:48:19;;;;;;;9.65;6.95;;;230.70;2252.80;;;;;;5076292;28;20028;-77
2021/11/23 02:50:52;;;;;;;11.02;6.97;;;230.70;2252.80;;;;;;5074651;28;20381;-78
2021/11/23 02:53:18;;;;;;;11.88;6.88;;;230.70;2252.80;;;;;;5074685;28;20107;-78
2021/11/23 02:55:44;;;;;;;12.77;6.72;;;230.70;2252.80;;;;;;5074159;28;20063;-78
2021/11/23 02:58:10;;;;;;;11.05;6.68;;;230.70;2252.80;;;;;;5074570;28;20353;-76
2021/11/23 03:00:38;;;;;;;10.13;7.07;;;230.70;2252.80;;;;;;5072756;28;20033;-79
2021/11/23 03:03:04;;;;;;;11.05;6.45;;;230.80;2252.80;;;;;;5073136;28;20082;-77
2021/11/23 03:05:30;;;;;;;11.55;6.75;;;230.70;2252.80;;;;;;5072870;28;20033;-77
2021/11/23 03:07:56;;;;;;;11.45;6.43;;;230.70;2252.80;;;;;;5072657;28;20086;-78
2021/11/23 03:10:24;;;;;;;10.68;7.03;;;230.40;2252.80;;;;;;5074242;28;20541;-77
2021/11/23 03:12:52;;;;;;;10.70;7.05;;;230.60;2252.80;;;;;;5074132;28;20028;-76
2021/11/23 03:15:19;;;;;;;11.90;6.57;;;230.50;2252.80;;;;;;5072696;28;20028;-78
2021/11/23 03:17:45;;;;;;;14.35;6.70;;;230.40;2252.80;;;;;;5083274;28;20035;-78
2021/11/23 03:20:13;;;;;;;15.15;7.85;;;230.50;2252.80;;;;;;5082549;28;20387;-78
2021/11/23 03:22:39;;;;;;;11.45;7.40;;;230.50;2252.80;;;;;;5078552;28;20508;-78
2021/11/23 03:25:05;;;;;;;14.88;7.55;;;230.50;2252.80;;;;;;5073282;28;20108;-79
2021/11/23 03:27:32;;;;;;;11.02;7.28;;;230.60;2252.80;;;;;;5074081;28;20396;-77
2021/11/23 03:29:58;;;;;;;9.75;7.00;;;230.60;2252.80;;;;;;5072707;28;20032;-76
2021/11/23 03:32:24;;;;;;;12.82;7.28;;;230.60;2252.80;;;;;;5072844;28;20034;-78
2021/11/23 03:34:50;;;;;;;9.88;7.47;;;230.70;2252.80;;;;;;5072417;28;20040;-77
2021/11/23 03:37:21;;;;;;;11.55;8.18;;;230.60;2252.80;;;;;;5073146;28;20029;-78
2021/11/23 03:39:47;;;;;;;16.52;10.35;;;230.60;2252.80;;;;;;5073617;28;20028;-78
2021/11/23 03:42:14;;;;;;;12.27;8.32;;;230.60;2252.80;;;;;;5073469;28;20020;-76
2021/11/23 03:44:40;;;;;;;10.40;5.85;;;230.60;2252.80;;;;;;5091046;28;20168;-76
2021/11/23 03:47:08;;;;;;;8.95;6.28;;;230.60;2252.80;;;;;;5073929;28;20093;-77
2021/11/23 03:49:35;;;;;;;10.70;6.95;;;230.60;2252.80;;;;;;5088480;28;20062;-77
2021/11/23 03:52:01;;;;;;;8.32;5.78;;;230.60;2252.80;;;;;;5075450;28;20063;-76
2021/11/23 03:54:27;;;;;;;12.45;7.28;;;230.60;2252.80;;;;;;5072554;28;20047;-77
2021/11/23 03:56:54;;;;;;;9.80;5.60;;;230.50;2252.80;;;;;;5072917;28;20472;-77
2021/11/23 03:59:19;;;;;;;9.65;6.68;;;230.50;2252.80;;;;;;5073510;28;20146;-78
2021/11/23 04:01:45;;;;;;;9.45;6.18;;;230.50;2252.80;;;;;;5072560;28;20494;-77
2021/11/23 04:04:12;;;;;;;8.20;5.10;;;230.50;2252.80;;;;;;5073859;28;20029;-76
2021/11/23 04:06:37;;;;;;;10.98;7.63;;;230.40;2252.80;;;;;;5090196;28;20071;-79
2021/11/23 04:09:04;;;;;;;7.90;5.00;;;230.40;2252.80;;;;;;5082850;28;20165;-78
2021/11/23 04:11:30;;;;;;;8.85;5.35;;;230.50;2252.80;;;;;;5072651;28;20029;-76
2021/11/23 04:13:56;;;;;;;8.52;5.53;;;230.50;2252.80;;;;;;5088284;28;20028;-76
2021/11/23 04:16:23;;;;;;;10.82;5.88;;;230.50;2252.80;;;;;;5093229;28;20028;-77
2021/11/23 04:18:50;;;;;;;8.50;5.65;;;230.50;2252.80;;;;;;5096112;28;20028;-75
2021/11/23 04:21:16;;;;;;;7.38;4.82;;;230.40;2252.80;;;;;;5097539;28;20036;-77
2021/11/23 04:23:42;;;;;;;9.07;5.68;;;230.40;2252.80;;;;;;5114295;28;20460;-77
2021/11/23 04:26:08;;;;;;;9.73;6.30;;;230.40;2252.80;;;;;;5108719;28;20015;-77
2021/11/23 04:28:34;;;;;;;9.25;6.28;;;230.40;2252.80;;;;;;5111395;28;20047;-79
2021/11/23 04:31:00;;;;;;;10.65;7.28;;;230.40;2252.80;;;;;;5094633;28;20036;-78
2021/11/23 04:33:25;;;;;;;9.75;6.93;;;230.40;2252.80;;;;;;5099205;28;20448;-75
2021/11/23 04:35:51;;;;;;;11.05;6.72;;;205.70;2252.80;;;;;;5084260;28;20025;-77
2021/11/23 04:38:17;;;;;;;9.45;6.72;;;205.70;2252.80;;;;;;5095446;28;20036;-76
2021/11/23 04:40:43;;;;;;;8.32;6.22;;;205.70;2252.80;;;;;;5096136;28;20400;-78
2021/11/23 04:43:09;;;;;;;7.10;5.15;;;205.70;2252.80;;;;;;5097899;28;20403;-76
2021/11/23 04:45:36;;;;;;;10.05;6.80;;;230.40;2252.80;;;;;;5100555;28;20059;-78
2021/11/23 04:48:03;;;;;;;15.45;8.02;;;205.70;2252.80;;;;;;5099728;28;20056;-76
2021/11/23 04:50:29;;;;;;;9.00;6.03;;;230.40;2252.80;;;;;;5097199;28;20051;-76
2021/11/23 04:52:55;;;;;;;11.02;7.38;;;230.40;2252.80;;;;;;5100696;28;20486;-77
2021/11/23 04:55:21;;;;;;;11.73;6.43;;;205.70;2252.80;;;;;;5096348;28;20021;-76
2021/11/23 04:57:47;;;;;;;9.40;6.65;;;230.40;2252.80;;;;;;5097421;28;20047;-75
2021/11/23 05:00:17;;;;;;;11.48;8.27;;;230.40;2252.80;;;;;;5095978;28;20028;-76
2021/11/23 05:02:44;;;;;;;11.30;7.43;;;230.50;2252.80;;;;;;5095054;28;20042;-77
2021/11/23 05:05:11;;;;;;;10.82;7.78;;;230.40;2252.80;;;;;;5093215;28;20032;-78
2021/11/23 05:07:37;;;;;;;8.57;6.10;;;230.40;2252.80;;;;;;5080998;28;20060;-77
2021/11/23 05:10:05;;;;;;;10.48;6.30;;;230.50;2252.80;;;;;;5090254;28;20032;-75
2021/11/23 05:12:31;;;;;;;9.18;6.00;;;230.60;2252.80;;;;;;5095412;28;20024;-76
2021/11/23 05:14:58;;;;;;;10.63;8.13;;;230.60;2252.80;;;;;;5095720;28;20116;-78
2021/11/23 05:17:24;;;;;;;11.77;6.90;;;230.60;2252.80;;;;;;5089662;28;20028;-78
2021/11/23 05:19:49;;;;;;;16.55;10.80;;;230.60;2252.80;;;;;;5094927;28;20480;-78
2021/11/23 05:22:15;;;;;;;15.68;9.90;;;230.60;2252.80;;;;;;5095452;28;20111;-77
2021/11/23 05:24:41;;;;;;;17.83;14.35;;;230.60;2252.80;;;;;;5094552;28;20085;-78
2021/11/23 05:27:07;;;;;;;23.65;14.13;;;230.60;2252.80;;;;;;5095317;28;20024;-78
2021/11/23 05:29:33;;;;;;;15.65;10.80;;;230.60;2252.80;;;;;;5095699;28;20020;-78
2021/11/23 05:31:59;;;;;;;27.83;17.85;;;230.60;2252.80;;;;;;5089483;28;20071;-76
2021/11/23 05:34:25;;;;;;;30.55;17.92;;;230.60;2252.80;;;;;;5095694;28;20020;-78
2021/11/23 05:36:51;;;;;;;19.25;12.73;;;230.50;2252.80;;;;;;5094484;28;20402;-79
2021/11/23 05:39:18;;;;;;;16.45;9.27;;;230.40;2252.80;;;;;;5092650;28;20043;-77
2021/11/23 05:41:45;;;;;;;14.27;9.10;;;230.40;2252.80;;;;;;5108660;28;20012;-78
2021/11/23 05:44:11;;;;;;;16.02;9.50;;;230.50;2252.80;;;;;;5115441;28;20040;-78
2021/11/23 05:46:39;;;;;;;14.27;9.70;;;230.50;2252.80;;;;;;5113381;28;20027;-75
2021/11/23 05:49:05;;;;;;;17.65;11.25;;;230.50;2252.80;;;;;;5111089;28;20012;-76
2021/11/23 05:51:31;;;;;;;14.40;9.95;;;230.50;2252.80;;;;;;5114455;28;20108;-76
2021/11/23 05:53:57;;;;;;;21.15;11.77;;;230.50;2252.80;;;;;;5116322;28;20055;-77
2021/11/23 05:56:23;;;;;;;20.70;13.15;;;230.50;2252.80;;;;;;5093509;28;20031;-77
2021/11/23 05:58:49;;;;;;;25.70;12.82;;;230.50;2252.80;;;;;;5082443;28;20021;-77
2021/11/23 06:01:15;;;;;;;17.90;11.45;;;230.40;2252.80;;;;;;5089179;28;20021;-77
2021/11/23 06:03:42;;;;;;;22.77;15.70;;;230.40;2252.80;;;;;;5092381;28;20048;-77
2021/11/23 06:06:10;;;;;;;23.23;15.02;;;205.70;2252.80;;;;;;5091764;28;20041;-77
2021/11/23 06:08:37;;;;;;;17.75;11.95;;;205.70;2252.80;;;;;;5092663;28;20035;-76
2021/11/23 06:11:03;;;;;;;16.40;11.65;;;205.70;2252.80;;;;;;5078087;28;20035;-76
2021/11/23 06:13:29;;;;;;;12.90;9.57;;;205.70;2252.80;;;;;;5074804;28;20060;-77
2021/11/23 06:15:55;;;;;;;11.48;8.60;;;205.70;2252.80;;;;;;5074857;28;20129;-78
2021/11/23 06:18:21;;;;;;;14.00;8.93;;;205.70;2252.80;;;;;;5077815;28;20508;-78
2021/11/23 06:20:49;;;;;;;13.30;8.90;;;205.60;2252.80;;;;;;5074990;28;20492;-75
2021/11/23 06:23:18;;;;;;;15.43;9.45;;;205.60;2252.80;;;;;;5074799;28;20507;-79
2021/11/23 06:25:49;;;;;;;16.48;10.18;;;205.70;2252.80;;;;;;5075428;28;20024;-78
2021/11/23 06:28:16;;;;;;;18.80;11.38;;;205.70;2252.80;;;;;;5075066;28;20123;-76
2021/11/23 06:30:43;;;;;;;27.27;15.43;;;205.70;2252.80;;;;;;5074664;28;20028;-76
2021/11/23 06:33:09;;;;;;;33.47;19.55;;;230.40;2252.80;;;;;;5077479;28;20036;-77
2021/11/23 06:35:35;;;;;;;35.42;20.42;;;230.40;2252.80;;;;;;5074265;28;20025;-77
2021/11/23 06:38:02;;;;;;;27.23;14.80;;;230.40;2252.80;;;;;;5075175;28;20391;-76
2021/11/23 06:40:27;;;;;;;28.52;16.75;;;230.40;2252.80;;;;;;5073015;28;20061;-78
2021/11/23 06:42:53;;;;;;;29.88;15.48;;;230.40;2252.80;;;;;;5073550;28;20103;-76
2021/11/23 06:45:19;;;;;;;22.88;12.13;;;230.40;2252.80;;;;;;5072417;28;20571;-74
2021/11/23 06:47:47;;;;;;;21.13;14.57;;;230.40;2252.80;;;;;;5073819;28;20388;-78
2021/11/23 06:50:13;;;;;;;22.75;12.13;;;230.40;2252.80;;;;;;5073580;28;20033;-77
2021/11/23 06:52:40;;;;;;;18.10;11.27;;;230.40;2252.80;;;;;;5075501;28;20028;-77
2021/11/23 06:55:07;;;;;;;16.25;10.90;;;205.70;2252.80;;;;;;5074381;28;20113;-76
2021/11/23 06:57:33;;;;;;;81.93;47.70;;;205.70;2252.80;;;;;;5075849;28;20024;-78
2021/11/23 06:59:59;;;;;;;43.90;27.75;;;230.40;2252.80;;;;;;5075221;28;20039;-76
2021/11/23 07:02:25;;;;;;;30.13;17.52;;;230.40;2252.80;;;;;;5073167;28;20499;-76
2021/11/23 07:04:51;;;;;;;28.50;14.70;;;230.70;2252.80;;;;;;5076159;28;20055;-74
2021/11/23 07:07:16;;;;;;;28.58;13.73;;;230.90;2252.80;;;;;;5093420;28;20055;-76
2021/11/23 07:09:42;;;;;;;22.48;12.65;;;230.80;2252.80;;;;;;5094509;28;20024;-77
2021/11/23 07:12:10;;;;;;;23.13;13.25;;;230.80;2252.80;;;;;;5075379;28;20044;-75
2021/11/23 07:14:37;;;;;;;31.95;17.27;;;230.80;2252.80;;;;;;5073881;28;20033;-76
2021/11/23 07:17:03;;;;;;;19.35;11.20;;;230.80;2252.80;;;;;;5072997;28;20029;-75
2021/11/23 07:19:29;;;;;;;14.57;9.82;;;230.70;2252.80;;;;;;5073433;28;20119;-76
2021/11/23 07:21:55;;;;;;;19.50;12.13;;;230.70;2252.80;;;;;;5073741;28;20122;-76
2021/11/23 07:24:20;;;;;;;25.27;14.77;;;230.70;2252.80;;;;;;5073408;28;20028;-78
2021/11/23 07:26:47;;;;;;;22.88;13.98;;;230.60;2252.80;;;;;;5072612;28;20400;-78
2021/11/23 07:29:12;;;;;;;25.75;14.93;;;230.60;2252.80;;;;;;5074221;28;20100;-75
2021/11/23 07:31:38;;;;;;;24.73;14.38;;;230.60;2252.80;;;;;;5079150;28;20070;-77
2021/11/23 07:34:05;;;;;;;19.83;11.27;;;230.70;2252.80;;;;;;5085100;28;20028;-78
2021/11/23 07:36:31;;;;;;;18.98;11.40;;;230.70;2252.80;;;;;;5086293;28;20027;-76
2021/11/23 07:39:00;;;;;;;20.17;12.82;;;230.60;2252.80;;;;;;5083561;28;20032;-79
2021/11/23 07:41:26;;;;;;;17.67;11.45;;;230.70;2252.80;;;;;;5086124;28;20027;-76
2021/11/23 07:43:52;;;;;;;19.50;10.35;;;230.60;2252.80;;;;;;5087992;28;20053;-79
2021/11/23 07:46:19;;;;;;;23.52;14.50;;;230.70;2252.80;;;;;;5085438;28;20033;-80
2021/11/23 07:48:45;;;;;;;24.98;13.65;;;230.70;2252.80;;;;;;5077782;28;20100;-81
2021/11/23 07:51:11;;;;;;;28.13;17.27;;;230.70;2252.80;;;;;;5075754;28;20056;-78
2021/11/23 07:53:38;;;;;;;24.20;15.75;;;230.70;2252.80;;;;;;5073707;28;20025;-80
2021/11/23 07:56:05;;;;;;;26.67;14.85;;;230.80;2252.80;;;;;;5074055;28;20029;-78
2021/11/23 07:58:30;;;;;;;32.08;21.10;;;230.80;2252.80;;;;;;5072196;28;20020;-79
2021/11/23 08:00:56;;;;;;;34.30;23.05;;;230.80;2252.80;;;;;;5092851;28;20440;-76
2021/11/23 08:03:23;;;;;;;34.67;23.20;;;230.90;2252.80;;;;;;5093495;28;20028;-77
2021/11/23 08:05:49;;;;;;;39.47;22.83;;;230.90;2252.80;;;;;;5093396;28;20032;-79
2021/11/23 08:08:15;;;;;;;45.72;26.58;;;230.90;2252.80;;;;;;5093879;28;20027;-78
2021/11/23 08:10:42;;;;;;;33.50;20.05;;;230.90;2252.80;;;;;;5094572;28;20103;-79
2021/11/23 08:13:09;;;;;;;42.05;25.25;;;231.00;2252.80;;;;;;5094836;28;20024;-76
2021/11/23 08:15:36;;;;;;;46.70;29.42;;;231.00;2252.80;;;;;;5093410;28;20027;-78
2021/11/23 08:18:06;;;;;;;37.20;25.45;;;231.00;2252.80;;;;;;5106618;28;20021;-80
2021/11/23 08:20:33;;;;;;;35.80;25.23;;;231.10;2252.80;;;;;;5114117;28;20016;-76
2021/11/23 08:22:59;;;;;;;28.25;18.20;;;231.10;2252.80;;;;;;5104040;28;20030;-78
2021/11/23 08:25:25;;;;;;;28.73;18.92;;;231.10;2252.80;;;;;;5108473;28;20039;-77
2021/11/23 08:27:51;;;;;;;32.25;19.90;;;231.00;2252.80;;;;;;5104559;28;20035;-78
2021/11/23 08:30:17;;;;;;;30.83;19.23;;;231.10;2252.80;;;;;;5100540;28;20032;-77
2021/11/23 08:32:43;;;;;;;24.50;15.80;;;231.00;2252.80;;;;;;5100404;28;20115;-76
2021/11/23 08:35:12;;;;;;;29.50;20.23;;;231.00;2252.80;;;;;;5100876;28;20480;-75
2021/11/23 08:37:38;;;;;;;30.67;18.55;;;231.00;2252.80;;;;;;5110474;28;20076;-76
2021/11/23 08:40:05;;;;;;;23.20;14.07;;;230.90;2252.80;;;;;;5101648;28;20028;-74
2021/11/23 08:42:32;;;;;;;22.27;13.60;;;230.90;2252.80;;;;;;5098112;28;20024;-76
2021/11/23 08:44:58;;;;;;;20.90;14.30;;;231.00;2252.80;;;;;;5094260;28;20078;-75
2021/11/23 08:47:25;;;;;;;28.33;16.75;;;230.90;2252.80;;;;;;5093921;28;20024;-74
2021/11/23 08:49:51;;;;;;;38.97;22.70;;;231.00;2252.80;;;;;;5092274;28;20495;-75
2021/11/23 08:52:17;;;;;;;34.58;19.50;;;231.20;2252.80;;;;;;5092219;28;20032;-75
2021/11/23 08:54:44;;;;;;;30.02;18.80;;;231.10;2252.80;;;;;;5092200;28;20361;-74
2021/11/23 08:57:10;;;;;;;30.70;18.02;;;231.10;2252.80;;;;;;5092085;28;20153;-74
2021/11/23 08:59:41;;;;;;;30.35;19.30;;;231.10;2252.80;;;;;;5092132;28;20028;-75
2021/11/23 09:02:07;;;;;;;34.20;22.92;;;231.10;2252.80;;;;;;5093492;28;20020;-78
2021/11/23 09:04:34;;;;;;;41.80;23.60;;;231.20;2252.80;;;;;;5093937;28;20384;-76
2021/11/23 09:07:03;;;;;;;37.92;21.85;;;231.20;2252.80;;;;;;5095689;28;20036;-77
2021/11/23 09:09:31;;;;;;;37.08;25.02;;;231.30;2252.80;;;;;;5095573;28;20032;-76
2021/11/23 09:12:01;;;;;;;31.65;18.80;;;231.30;2252.80;;;;;;5096676;28;20034;-76
2021/11/23 09:14:28;;;;;;;32.15;18.42;;;231.30;2252.80;;;;;;5095552;28;20032;-77
2021/11/23 09:16:54;;;;;;;28.50;16.50;;;231.30;2252.80;;;;;;5096597;28;20024;-78
2021/11/23 09:19:20;;;;;;;33.30;17.77;;;231.30;2252.80;;;;;;5095348;28;20036;-77
2021/11/23 09:21:46;;;;;;;36.13;19.27;;;231.20;2252.80;;;;;;5095269;28;20051;-78
2021/11/23 09:24:12;;;;;;;29.58;17.70;;;231.20;2252.80;;;;;;5095299;28;20395;-77
2021/11/23 09:26:38;;;;;;;35.83;20.52;;;231.30;2252.80;;;;;;5096328;28;20480;-75
2021/11/23 09:29:04;;;;;;;30.58;19.27;;;231.30;2252.80;;;;;;5095311;28;20388;-78
2021/11/23 09:31:30;;;;;;;34.55;19.58;;;231.30;2252.80;;;;;;5096394;28;20090;-77
2021/11/23 09:33:56;;;;;;;49.83;27.75;;;231.30;2252.80;;;;;;5096443;28;20024;-78
2021/11/23 09:36:22;;;;;;;51.10;28.35;;;231.30;2252.80;;;;;;5096395;28;20391;-76
2021/11/23 09:38:48;;;;;;;43.08;24.48;;;231.30;2252.80;;;;;;5096318;28;20024;-76
2021/11/23 09:41:14;;;;;;;69.32;37.47;;;231.30;2252.80;;;;;;5094894;28;20524;-78
2021/11/23 09:43:41;;;;;;;51.50;28.25;;;256.00;2252.80;;;;;;5094794;28;20066;-77
2021/11/23 09:46:08;;;;;;;35.97;19.85;;;256.00;2252.80;;;;;;5094629;28;20035;-78
2021/11/23 09:48:39;;;;;;;37.10;19.13;;;256.00;2252.80;;;;;;5095862;28;20032;-77
2021/11/23 09:51:06;;;;;;;38.53;22.95;;;256.00;2252.80;;;;;;5095890;28;20103;-77
2021/11/23 09:53:32;;;;;;;44.63;26.85;;;256.00;2252.80;;;;;;5095942;28;20081;-78
2021/11/23 09:55:58;;;;;;;41.42;20.67;;;256.10;2252.80;;;;;;5094523;28;20433;-77
2021/11/23 09:58:24;;;;;;;36.97;21.73;;;256.10;2252.80;;;;;;5095845;28;20028;-77
2021/11/23 10:00:52;;;;;;;50.25;25.77;;;256.10;2252.80;;;;;;5094593;28;20035;-78
2021/11/23 10:03:30;;;;;;;36.25;23.35;;;256.10;2252.80;;;;;;5094639;28;20031;-78
2021/11/23 10:06:10;;;;;;;44.22;23.73;;;256.10;2252.80;;;;;;5094501;28;20093;-77
2021/11/23 10:08:40;;;;;;;41.92;22.67;;;256.20;2252.80;;;;;;5095847;28;20024;-78
2021/11/23 10:11:06;;;;;;;36.25;22.30;;;256.10;2252.80;;;;;;5094152;28;20036;-78
2021/11/23 10:13:48;;;;;;;38.30;22.27;;;256.20;2252.80;;;;;;5094152;28;20036;-79
2021/11/23 10:16:15;;;;;;;35.97;19.10;;;256.20;2252.80;;;;;;5094081;28;20028;-77
2021/11/23 10:18:42;;;;;;;35.53;19.90;;;256.20;2252.80;;;;;;5095460;28;20032;-76
2021/11/23 10:21:11;;;;;;;42.38;20.02;;;256.20;2252.80;;;;;;5094553;28;20024;-76
2021/11/23 10:23:43;;;;;;;31.52;19.38;;;256.10;2252.80;;;;;;5094362;28;20020;-76
2021/11/23 10:26:21;;;;;;;28.80;16.27;;;256.10;2252.80;;;;;;5095524;28;20074;-76
2021/11/23 10:28:55;;;;;;;27.35;17.02;;;256.00;2252.80;;;;;;5094095;28;20020;-77
2021/11/23 10:31:33;;;;;;;32.25;18.17;;;256.00;2252.80;;;;;;5094067;28;20469;-77
2021/11/23 10:34:02;;;;;;;30.70;16.60;;;256.00;2252.80;;;;;;5093913;28;20031;-77
2021/11/23 10:36:33;;;;;;;31.52;19.13;;;256.00;2252.80;;;;;;5095346;28;20380;-75
2021/11/23 10:39:25;;;;;;;36.53;22.05;;;256.00;2252.80;;;;;;5095321;28;20428;-77
2021/11/23 10:41:58;;;;;;;31.67;17.95;;;256.00;2252.80;;;;;;5032822;28;20497;-75
2021/11/23 10:44:32;;;;;;;34.00;21.00;;;256.00;2252.80;;;;;;5015720;28;20057;-77
2021/11/23 10:46:59;;;;;;;33.35;18.80;;;256.00;2252.80;;;;;;5016094;28;20033;-75
2021/11/23 10:49:43;;;;;;;33.42;19.38;;;256.10;2252.80;;;;;;5016107;28;20075;-78
2021/11/23 10:52:28;;;;;;;47.70;26.48;;;256.10;2252.80;;;;;;5032504;28;20071;-76
2021/11/23 10:54:55;;;;;;;38.75;21.75;;;256.10;2252.80;;;;;;5032617;28;20037;-77
2021/11/23 10:57:23;;;;;;;41.65;22.30;;;256.10;2252.80;;;;;;5033010;28;20473;-76
2021/11/23 10:59:48;;;;;;;38.75;22.67;;;256.20;2252.80;;;;;;5032564;28;20037;-75
2021/11/23 11:02:14;;;;;;;41.35;24.55;;;256.20;2252.80;;;;;;5032679;28;20159;-74
2021/11/23 11:04:43;;;;;;;49.65;27.80;;;256.20;2252.80;;;;;;5015289;28;20029;-75
2021/11/23 11:07:09;;;;;;;38.20;21.80;;;256.30;2252.80;;;;;;5032944;28;20386;-78
2021/11/23 11:09:37;;;;;;;50.38;28.63;;;256.30;2252.80;;;;;;5033070;28;20021;-78
2021/11/23 11:12:04;;;;;;;53.10;28.83;;;256.30;2252.80;;;;;;5032896;28;20091;-74
2021/11/23 11:14:35;;;;;;;38.55;20.50;;;256.20;2252.80;;;;;;5042620;28;20038;-77
2021/11/23 11:17:07;;;;;;;32.00;21.35;;;256.30;2252.80;;;;;;5047311;28;20014;-73
2021/11/23 11:19:50;;;;;;;32.58;18.73;;;256.20;2252.80;;;;;;5100232;28;20031;-74
2021/11/23 11:22:19;;;;;;;26.58;15.48;;;256.30;2252.80;;;;;;5109012;28;20058;-76
2021/11/23 11:25:07;;;;;;;34.95;20.08;;;256.20;2252.80;;;;;;5109343;28;20117;-73
2021/11/23 11:27:36;;;;;;;36.00;22.85;;;256.30;2252.80;;;;;;5097255;28;20036;-73
2021/11/23 11:30:38;;;;;;;36.08;21.45;;;256.30;2252.80;;;;;;5094248;28;20379;-73
2021/11/23 11:33:04;;;;;;;34.45;19.17;;;256.20;2252.80;;;;;;5094282;28;20024;-74
2021/11/23 11:35:36;;;;;;;42.95;25.30;;;256.10;2252.80;;;;;;5093686;28;20027;-74
2021/11/23 11:38:04;;;;;;;43.63;26.73;;;256.20;2252.80;;;;;;5093988;28;20016;-75
2021/11/23 11:40:42;;;;;;;58.38;32.95;;;256.20;2252.80;;;;;;5094133;28;20356;-74
2021/11/23 11:43:09;;;;;;;47.85;27.08;;;256.20;2252.80;;;;;;5094001;28;20099;-74
2021/11/23 11:45:42;;;;;;;37.70;19.90;;;256.20;2252.80;;;;;;5093819;28;20103;-74
2021/11/23 11:48:27;;;;;;;47.15;24.08;;;256.20;2252.80;;;;;;5093821;28;20055;-73
2021/11/23 11:51:02;;;;;;;52.58;31.13;;;256.20;2252.80;;;;;;5092379;28;20361;-74
2021/11/23 11:53:50;;;;;;;42.45;27.05;;;256.30;2252.80;;;;;;5093771;28;20019;-73
2021/11/23 11:56:39;;;;;;;44.90;24.92;;;256.30;2252.80;;;;;;5093699;28;20035;-74
2021/11/23 11:59:27;;;;;;;42.20;24.70;;;256.30;2252.80;;;;;;5093616;28;20050;-74
2021/11/23 12:02:06;;;;;;;38.10;23.73;;;256.30;2252.80;;;;;;5092223;28;20024;-73
2021/11/23 12:04:51;;;;;;;43.70;27.10;;;256.40;2252.80;;;;;;5093732;28;20035;-73
2021/11/23 12:07:18;;;;;;;35.72;21.90;;;256.40;2252.80;;;;;;5093721;28;20063;-76